createdAt,value
2023-05-21T00:00:58.138Z,17.90
2023-05-21T00:03:14.268Z,17.82
2023-05-21T00:05:15.009Z,17.81
2023-05-21T00:07:11.296Z,17.75
2023-05-21T00:09:08.208Z,17.68
2023-05-21T00:11:03.468Z,17.66
2023-05-21T00:13:01.754Z,17.67
2023-05-21T00:14:56.869Z,17.65
2023-05-21T00:16:54.907Z,17.61
2023-05-21T00:18:50.176Z,17.61
2023-05-21T00:20:45.889Z,17.55
2023-05-21T00:22:42.446Z,17.53
2023-05-21T00:24:38.006Z,17.50
2023-05-21T00:26:33.023Z,17.48
2023-05-21T00:28:28.505Z,17.42
2023-05-21T00:30:23.534Z,17.42
2023-05-21T00:32:21.472Z,17.40
2023-05-21T00:34:17.210Z,17.36
2023-05-21T00:36:14.642Z,17.33
2023-05-21T00:38:10.305Z,17.29
2023-05-21T00:40:08.857Z,17.27
2023-05-21T00:42:04.434Z,17.23
2023-05-21T00:44:00.375Z,17.20
2023-05-21T00:45:56.690Z,17.20
2023-05-21T00:47:55.496Z,17.18
2023-05-21T00:49:51.668Z,17.13
2023-05-21T00:51:48.564Z,17.15
2023-05-21T00:53:44.400Z,17.09
2023-05-21T00:55:40.282Z,17.07
2023-05-21T00:57:37.288Z,17.04
2023-05-21T00:59:33.146Z,17.02
2023-05-21T01:01:33.863Z,17.02
2023-05-21T01:03:38.838Z,17.00
2023-05-21T01:05:34.399Z,16.96
2023-05-21T01:07:29.948Z,16.96
2023-05-21T01:09:25.316Z,16.89
2023-05-21T01:11:22.125Z,16.86
2023-05-21T01:13:18.001Z,16.88
2023-05-21T01:15:14.541Z,16.89
2023-05-21T01:17:10.586Z,16.84
2023-05-21T01:19:10.428Z,16.86
2023-05-21T01:21:07.608Z,16.81
2023-05-21T01:23:06.429Z,16.77
2023-05-21T01:25:02.908Z,16.75
2023-05-21T01:26:58.858Z,16.70
2023-05-21T01:28:53.953Z,16.70
2023-05-21T01:30:50.181Z,16.71
2023-05-21T01:32:50.995Z,16.72
2023-05-21T01:34:53.874Z,16.70
2023-05-21T01:37:00.284Z,16.65
2023-05-21T01:39:04.771Z,16.61
2023-05-21T01:41:03.978Z,16.50
2023-05-21T01:43:01.280Z,16.50
2023-05-21T01:45:00.431Z,16.49
2023-05-21T01:46:57.389Z,16.47
2023-05-21T01:48:54.022Z,16.45
2023-05-21T01:50:50.567Z,16.45
2023-05-21T01:52:52.789Z,16.46
2023-05-21T01:54:51.496Z,16.44
2023-05-21T01:56:48.049Z,16.42
2023-05-21T01:58:44.125Z,16.41
2023-05-21T02:00:40.138Z,16.38
2023-05-21T02:02:35.591Z,16.34
2023-05-21T02:04:31.885Z,16.30
2023-05-21T02:06:27.722Z,16.18
2023-05-21T02:08:23.534Z,16.19
2023-05-21T02:10:22.234Z,16.16
2023-05-21T02:12:17.575Z,16.12
2023-05-21T02:14:14.168Z,16.10
2023-05-21T02:16:10.347Z,16.10
2023-05-21T02:18:06.362Z,15.97
2023-05-21T02:20:11.162Z,15.97
2023-05-21T02:22:07.112Z,15.95
2023-05-21T02:24:02.471Z,15.91
2023-05-21T02:26:00.891Z,15.91
2023-05-21T02:27:56.908Z,15.88
2023-05-21T02:29:52.576Z,15.90
2023-05-21T02:31:47.859Z,15.91
2023-05-21T02:33:44.182Z,15.91
2023-05-21T02:35:39.482Z,15.85
2023-05-21T02:37:33.957Z,15.77
2023-05-21T02:39:29.377Z,15.79
2023-05-21T02:41:27.814Z,15.79
2023-05-21T02:43:23.279Z,15.80
2023-05-21T02:45:19.031Z,15.81
2023-05-21T02:47:14.406Z,15.79
2023-05-21T02:49:10.097Z,15.78
2023-05-21T02:51:05.439Z,15.79
2023-05-21T02:53:01.300Z,15.81
2023-05-21T02:54:56.373Z,15.78
2023-05-21T02:56:54.378Z,15.72
2023-05-21T02:58:49.548Z,15.65
2023-05-21T03:00:44.879Z,15.63
2023-05-21T03:02:40.029Z,15.68
2023-05-21T03:04:39.325Z,15.70
2023-05-21T03:06:34.954Z,15.69
2023-05-21T03:08:30.295Z,15.68
2023-05-21T03:10:25.434Z,15.69
2023-05-21T03:12:23.406Z,15.65
2023-05-21T03:14:18.970Z,15.66
2023-05-21T03:16:14.444Z,15.64
2023-05-21T03:18:09.596Z,15.61
2023-05-21T03:20:05.380Z,15.61
2023-05-21T03:22:00.454Z,15.55
2023-05-21T03:23:58.789Z,15.54
2023-05-21T03:25:54.066Z,15.55
2023-05-21T03:27:52.259Z,15.53
2023-05-21T03:29:47.286Z,15.43
2023-05-21T03:31:42.654Z,15.44
2023-05-21T03:33:37.801Z,15.41
2023-05-21T03:35:33.194Z,15.39
2023-05-21T03:37:28.344Z,15.35
2023-05-21T03:39:23.794Z,15.28
2023-05-21T03:41:18.990Z,15.25
2023-05-21T03:43:17.024Z,15.28
2023-05-21T03:45:12.841Z,15.30
2023-05-21T03:47:08.526Z,15.31
2023-05-21T03:49:03.611Z,15.31
2023-05-21T03:50:59.377Z,15.25
2023-05-21T03:52:54.435Z,15.24
2023-05-21T03:54:49.783Z,15.23
2023-05-21T03:56:44.830Z,15.25
2023-05-21T03:58:42.843Z,15.28
2023-05-21T04:00:38.008Z,15.28
2023-05-21T04:02:34.780Z,15.28
2023-05-21T04:04:29.915Z,15.31
2023-05-21T04:06:25.384Z,15.36
2023-05-21T04:08:20.466Z,15.38
2023-05-21T04:10:13.271Z,15.42
2023-05-21T04:12:09.092Z,15.41
2023-05-21T04:14:07.044Z,15.44
2023-05-21T04:16:02.122Z,15.45
2023-05-21T04:17:58.736Z,15.46
2023-05-21T04:19:54.537Z,15.45
2023-05-21T04:21:49.869Z,15.46
2023-05-21T04:23:44.887Z,15.50
2023-05-21T04:25:40.620Z,15.56
2023-05-21T04:27:35.664Z,15.58
2023-05-21T04:29:33.613Z,15.61
2023-05-21T04:31:28.798Z,15.61
2023-05-21T04:33:24.703Z,15.64
2023-05-21T04:35:19.778Z,15.67
2023-05-21T04:37:17.959Z,15.67
2023-05-21T04:39:13.199Z,15.69
2023-05-21T04:41:10.995Z,15.71
2023-05-21T04:43:06.100Z,15.73
2023-05-21T04:45:04.536Z,15.75
2023-05-21T04:47:00.674Z,15.76
2023-05-21T04:48:56.401Z,15.78
2023-05-21T04:50:52.157Z,15.78
2023-05-21T04:52:47.941Z,15.82
2023-05-21T04:54:45.956Z,15.83
2023-05-21T04:56:41.680Z,15.88
2023-05-21T04:58:37.317Z,15.90
2023-05-21T05:00:37.878Z,15.91
2023-05-21T05:02:33.277Z,15.93
2023-05-21T05:04:29.305Z,15.98
2023-05-21T05:06:25.989Z,15.98
2023-05-21T05:08:21.858Z,16.01
2023-05-21T05:10:17.249Z,16.03
2023-05-21T05:12:12.979Z,16.02
2023-05-21T05:14:08.038Z,16.04
2023-05-21T05:16:06.269Z,16.09
2023-05-21T05:18:02.031Z,16.14
2023-05-21T05:19:57.394Z,16.15
2023-05-21T05:21:54.776Z,16.15
2023-05-21T05:23:50.272Z,16.18
2023-05-21T05:25:45.469Z,16.19
2023-05-21T05:27:40.780Z,16.22
2023-05-21T05:29:35.867Z,16.25
2023-05-21T05:31:33.965Z,16.29
2023-05-21T05:33:29.078Z,16.24
2023-05-21T05:35:24.643Z,16.25
2023-05-21T05:37:19.736Z,16.29
2023-05-21T05:39:15.109Z,16.31
2023-05-21T05:41:10.181Z,16.33
2023-05-21T05:43:05.685Z,16.35
2023-05-21T05:45:00.735Z,16.37
2023-05-21T05:46:58.702Z,16.47
2023-05-21T05:48:53.805Z,16.47
2023-05-21T05:50:49.296Z,16.48
2023-05-21T05:52:44.429Z,16.49
2023-05-21T05:54:39.837Z,16.48
2023-05-21T05:56:34.915Z,16.49
2023-05-21T05:58:30.729Z,16.54
2023-05-21T06:00:26.381Z,16.57
2023-05-21T06:02:24.391Z,16.58
2023-05-21T06:04:19.505Z,16.58
2023-05-21T06:06:15.058Z,16.61
2023-05-21T06:08:10.190Z,16.65
2023-05-21T06:10:05.605Z,16.62
2023-05-21T06:12:01.113Z,16.65
2023-05-21T06:13:56.836Z,16.72
2023-05-21T06:15:52.187Z,16.74
2023-05-21T06:17:50.341Z,16.73
2023-05-21T06:19:46.237Z,16.73
2023-05-21T06:21:41.610Z,16.79
2023-05-21T06:23:37.835Z,16.84
2023-05-21T06:25:33.363Z,16.87
2023-05-21T06:27:28.444Z,16.76
2023-05-21T06:29:23.823Z,16.82
2023-05-21T06:31:19.115Z,16.87
2023-05-21T06:33:17.197Z,16.88
2023-05-21T06:35:12.851Z,16.93
2023-05-21T06:37:08.517Z,16.95
2023-05-21T06:39:03.594Z,16.95
2023-05-21T06:40:58.987Z,16.98
2023-05-21T06:42:54.018Z,16.96
2023-05-21T06:44:49.520Z,16.96
2023-05-21T06:46:44.589Z,17.03
2023-05-21T06:48:42.724Z,17.06
2023-05-21T06:50:37.766Z,17.03
2023-05-21T06:52:33.311Z,17.02
2023-05-21T06:54:28.450Z,17.05
2023-05-21T06:56:24.517Z,17.10
2023-05-21T06:58:19.796Z,17.17
2023-05-21T07:00:16.386Z,17.21
2023-05-21T07:02:11.547Z,17.20
2023-05-21T07:04:09.695Z,17.21
2023-05-21T07:06:04.789Z,17.27
2023-05-21T07:08:00.147Z,17.31
2023-05-21T07:09:55.180Z,17.34
2023-05-21T07:11:50.562Z,17.31
2023-05-21T07:13:45.898Z,17.39
2023-05-21T07:15:41.570Z,17.41
2023-05-21T07:17:37.659Z,17.46
2023-05-21T07:19:36.029Z,17.50
2023-05-21T07:21:31.382Z,17.53
2023-05-21T07:23:27.050Z,17.58
2023-05-21T07:25:22.710Z,17.62
2023-05-21T07:29:19.874Z,17.66
2023-05-21T07:31:15.732Z,17.70
2023-05-21T07:33:13.931Z,17.73
2023-05-21T07:35:12.692Z,17.84
2023-05-21T07:37:08.125Z,17.89
2023-05-21T07:39:04.078Z,17.93
2023-05-21T07:40:59.727Z,17.95
2023-05-21T07:42:55.483Z,17.98
2023-05-21T07:44:50.971Z,18.01
2023-05-21T07:46:47.015Z,18.04
2023-05-21T07:48:44.194Z,18.11
2023-05-21T07:50:42.477Z,18.19
2023-05-21T07:52:37.845Z,18.23
2023-05-21T07:54:33.599Z,18.31
2023-05-21T07:56:29.597Z,18.39
2023-05-21T07:58:25.261Z,18.39
2023-05-21T08:00:20.947Z,18.48
2023-05-21T08:02:16.838Z,18.55
2023-05-21T08:04:12.358Z,18.65
2023-05-21T08:06:10.820Z,18.78
2023-05-21T08:08:06.825Z,18.83
2023-05-21T08:10:03.039Z,18.80
2023-05-21T08:11:58.544Z,18.81
2023-05-21T08:13:53.951Z,18.84
2023-05-21T08:15:51.986Z,18.87
2023-05-21T08:17:48.505Z,18.88
2023-05-21T08:19:43.594Z,18.95
2023-05-21T08:21:41.526Z,19.08
2023-05-21T08:23:36.619Z,19.11
2023-05-21T08:25:32.536Z,19.14
2023-05-21T08:27:27.546Z,19.19
2023-05-21T08:29:24.889Z,19.33
2023-05-21T08:31:21.705Z,19.45
2023-05-21T08:33:19.544Z,19.63
2023-05-21T08:35:16.338Z,19.75
2023-05-21T08:37:14.271Z,19.77
2023-05-21T08:39:09.446Z,19.80
2023-05-21T08:41:07.115Z,19.89
2023-05-21T08:43:02.647Z,19.92
2023-05-21T08:45:02.818Z,20.00
2023-05-21T08:47:00.477Z,20.08
2023-05-21T08:48:57.791Z,20.15
2023-05-21T08:50:53.453Z,20.24
2023-05-21T08:52:53.228Z,20.37
2023-05-21T08:54:50.784Z,20.42
2023-05-21T08:56:49.664Z,20.50
2023-05-21T08:58:47.909Z,20.57
2023-05-21T09:00:43.448Z,20.66
2023-05-21T09:02:41.014Z,20.67
2023-05-21T09:04:39.068Z,20.78
2023-05-21T09:06:34.589Z,20.88
2023-05-21T09:08:38.020Z,20.93
2023-05-21T09:10:39.142Z,21.02
2023-05-21T09:12:34.992Z,21.13
2023-05-21T09:14:30.963Z,21.16
2023-05-21T09:16:26.369Z,21.23
2023-05-21T09:18:21.702Z,21.31
2023-05-21T09:20:18.690Z,21.43
2023-05-21T09:22:13.823Z,21.50
2023-05-21T09:24:12.742Z,21.62
2023-05-21T09:26:15.543Z,21.69
2023-05-21T09:28:15.040Z,21.78
2023-05-21T09:30:13.811Z,21.89
2023-05-21T09:32:10.601Z,21.95
2023-05-21T09:34:05.628Z,21.99
2023-05-21T09:36:02.255Z,22.08
2023-05-21T09:37:57.662Z,22.13
2023-05-21T09:39:55.769Z,22.18
2023-05-21T09:41:51.449Z,22.41
2023-05-21T09:43:47.402Z,22.37
2023-05-21T09:45:54.183Z,22.49
2023-05-21T09:47:50.710Z,22.75
2023-05-21T09:49:47.381Z,22.92
2023-05-21T09:51:46.556Z,22.91
2023-05-21T09:53:47.024Z,22.85
2023-05-21T09:55:44.999Z,22.92
2023-05-21T09:57:44.169Z,23.06
2023-05-21T09:59:39.918Z,23.11
2023-05-21T10:01:36.209Z,23.16
2023-05-21T10:03:34.662Z,23.13
2023-05-21T10:05:31.514Z,23.32
2023-05-21T10:07:28.987Z,23.36
2023-05-21T10:09:25.001Z,23.51
2023-05-21T10:11:26.613Z,23.61
2023-05-21T10:13:24.950Z,23.79
2023-05-21T10:15:26.677Z,23.95
2023-05-21T10:17:22.683Z,23.84
2023-05-21T10:19:19.733Z,23.87
2023-05-21T10:21:16.015Z,24.25
2023-05-21T10:23:13.114Z,24.41
2023-05-21T10:25:12.171Z,24.57
2023-05-21T10:27:11.737Z,24.84
2023-05-21T10:29:06.974Z,24.78
2023-05-21T10:31:02.808Z,24.73
2023-05-21T10:32:58.918Z,24.96
2023-05-21T10:34:56.278Z,25.06
2023-05-21T10:36:52.324Z,25.04
2023-05-21T10:38:48.416Z,25.10
2023-05-21T10:40:43.587Z,25.14
2023-05-21T10:43:09.032Z,25.42
2023-05-21T10:45:19.690Z,25.58
2023-05-21T10:47:34.870Z,25.78
2023-05-21T10:49:42.213Z,25.88
2023-05-21T10:51:48.134Z,25.87
2023-05-21T10:54:04.395Z,25.72
2023-05-21T10:56:17.137Z,25.55
2023-05-21T10:58:46.078Z,25.62
2023-05-21T11:00:50.719Z,25.67
2023-05-21T11:02:46.341Z,25.79
2023-05-21T11:04:44.418Z,25.90
2023-05-21T11:06:39.913Z,25.97
2023-05-21T11:08:37.454Z,25.98
2023-05-21T11:10:40.859Z,25.90
2023-05-21T11:12:37.876Z,25.96
2023-05-21T11:14:35.593Z,25.91
2023-05-21T11:16:33.916Z,26.09
2023-05-21T11:19:01.802Z,25.89
2023-05-21T11:20:57.377Z,26.13
2023-05-21T11:22:52.402Z,26.06
2023-05-21T11:28:27.234Z,25.97
2023-05-21T11:30:35.191Z,26.08
2023-05-21T11:32:34.196Z,26.14
2023-05-21T11:34:35.145Z,26.24
2023-05-21T11:36:41.364Z,26.12
2023-05-21T11:38:36.806Z,26.30
2023-05-21T11:40:32.005Z,26.23
2023-05-21T11:42:35.500Z,26.35
2023-05-21T11:44:43.514Z,26.51
2023-05-21T11:46:39.215Z,26.82
2023-05-21T11:48:37.444Z,26.93
2023-05-21T11:50:34.224Z,27.03
2023-05-21T11:52:31.938Z,27.16
2023-05-21T11:54:27.677Z,27.40
2023-05-21T11:56:24.570Z,27.50
2023-05-21T11:58:21.649Z,27.98
2023-05-21T12:00:18.646Z,28.03
2023-05-21T12:02:18.087Z,28.01
2023-05-21T12:04:16.428Z,28.17
2023-05-21T12:06:12.382Z,28.19
2023-05-21T12:08:10.793Z,28.47
2023-05-21T12:10:06.797Z,28.63
2023-05-21T12:12:05.670Z,28.55
2023-05-21T12:14:01.377Z,28.78
2023-05-21T12:15:56.973Z,28.70
2023-05-21T12:17:54.059Z,28.61
2023-05-21T12:19:53.750Z,28.72
2023-05-21T12:21:49.216Z,28.89
2023-05-21T12:23:44.606Z,28.93
2023-05-21T12:25:40.100Z,29.09
2023-05-21T12:27:37.249Z,29.18
2023-05-21T12:29:36.154Z,29.12
2023-05-21T12:31:35.617Z,29.15
2023-05-21T12:33:37.154Z,29.06
2023-05-21T12:35:35.271Z,28.95
2023-05-21T12:37:47.374Z,28.95
2023-05-21T12:43:14.919Z,28.99
2023-05-21T12:48:00.327Z,29.28
2023-05-21T12:49:58.613Z,29.21
2023-05-21T12:51:59.689Z,29.45
2023-05-21T12:53:55.984Z,29.54
2023-05-21T12:55:51.980Z,29.53
2023-05-21T12:57:52.097Z,29.43
2023-05-21T12:59:57.010Z,29.28
2023-05-21T13:01:58.393Z,29.49
2023-05-21T13:03:54.206Z,29.38
2023-05-21T13:05:52.701Z,29.45
2023-05-21T13:07:51.819Z,29.44
2023-05-21T13:09:48.956Z,29.54
2023-05-21T13:11:44.839Z,29.87
2023-05-21T13:13:43.368Z,29.81
2023-05-21T13:15:38.565Z,30.05
2023-05-21T13:17:35.697Z,30.14
2023-05-21T13:19:33.900Z,30.27
2023-05-21T13:21:29.643Z,30.50
2023-05-21T13:23:27.703Z,30.26
2023-05-21T13:25:25.119Z,30.11
2023-05-21T13:27:20.331Z,30.08
2023-05-21T13:29:16.345Z,30.06
2023-05-21T13:31:12.323Z,30.09
2023-05-21T13:33:09.123Z,30.05
2023-05-21T13:35:05.029Z,30.01
2023-05-21T13:37:00.403Z,30.09
2023-05-21T13:38:58.521Z,30.01
2023-05-21T13:40:53.968Z,30.29
2023-05-21T13:42:50.653Z,30.18
2023-05-21T13:44:46.078Z,30.28
2023-05-21T13:46:41.147Z,30.42
2023-05-21T13:48:36.619Z,30.50
2023-05-21T13:50:31.669Z,30.48
2023-05-21T13:52:27.449Z,30.28
2023-05-21T13:54:25.112Z,30.29
2023-05-21T13:56:21.273Z,30.29
2023-05-21T13:58:16.697Z,30.41
2023-05-21T14:00:14.411Z,30.54
2023-05-21T14:02:15.322Z,30.35
2023-05-21T14:04:10.768Z,30.24
2023-05-21T14:06:09.291Z,30.19
2023-05-21T14:08:04.600Z,30.36
2023-05-21T14:10:03.142Z,30.52
2023-05-21T14:12:00.288Z,30.55
2023-05-21T14:14:17.707Z,30.55
2023-05-21T14:16:27.093Z,30.37
2023-05-21T14:18:23.464Z,30.44
2023-05-21T14:20:20.603Z,30.33
2023-05-21T14:22:19.465Z,30.35
2023-05-21T14:24:17.203Z,30.43
2023-05-21T14:26:16.030Z,30.43
2023-05-21T14:28:23.631Z,30.54
2023-05-21T14:30:35.476Z,30.67
2023-05-21T14:32:34.595Z,30.44
2023-05-21T14:34:38.681Z,30.51
2023-05-21T14:36:37.234Z,30.55
2023-05-21T14:38:36.500Z,30.55
2023-05-21T14:40:33.537Z,30.29
2023-05-21T14:42:32.208Z,30.33
2023-05-21T14:44:30.518Z,30.46
2023-05-21T14:46:40.502Z,30.22
2023-05-21T14:48:53.633Z,30.06
2023-05-21T14:50:59.559Z,29.99
2023-05-21T14:53:03.054Z,30.07
2023-05-21T14:55:18.834Z,29.98
2023-05-21T14:57:31.618Z,30.01
2023-05-21T14:59:35.657Z,29.77
2023-05-21T15:02:13.712Z,29.83
2023-05-21T15:04:27.797Z,30.07
2023-05-21T15:06:23.414Z,30.11
2023-05-21T15:08:19.818Z,29.97
2023-05-21T15:10:17.249Z,29.78
2023-05-21T15:12:14.737Z,29.76
2023-05-21T15:14:10.128Z,29.78
2023-05-21T15:16:09.624Z,29.84
2023-05-21T15:18:05.616Z,29.58
2023-05-21T15:20:12.994Z,29.59
2023-05-21T15:22:10.927Z,29.48
2023-05-21T15:24:09.877Z,29.44
2023-05-21T15:26:05.024Z,29.29
2023-05-21T15:28:00.656Z,29.35
2023-05-21T15:29:56.208Z,29.33
2023-05-21T15:31:54.722Z,29.17
2023-05-21T15:34:24.214Z,29.31
2023-05-21T15:36:25.238Z,29.36
2023-05-21T15:38:20.504Z,29.42
2023-05-21T15:40:16.892Z,29.50
2023-05-21T15:42:11.990Z,29.67
2023-05-21T15:44:09.902Z,29.66
2023-05-21T15:46:05.011Z,29.71
2023-05-21T15:48:03.054Z,29.63
2023-05-21T15:50:01.356Z,29.65
2023-05-21T15:52:47.369Z,29.68
2023-05-21T15:54:44.317Z,29.67
2023-05-21T15:56:45.937Z,29.53
2023-05-21T15:58:46.462Z,29.37
2023-05-21T16:11:03.154Z,29.39
2023-05-21T16:53:50.476Z,29.31
2023-05-21T17:02:48.871Z,29.17
2023-05-21T17:18:24.747Z,28.67
2023-05-21T17:29:02.965Z,28.09
2023-05-21T17:37:17.343Z,27.85
2023-05-21T17:40:08.416Z,27.87
2023-05-21T18:02:32.580Z,27.34
2023-05-21T18:08:13.061Z,27.24
2023-05-21T18:12:53.708Z,27.09
2023-05-21T18:21:33.212Z,27.08
2023-05-21T18:29:36.611Z,26.76
2023-05-21T18:42:08.902Z,26.51
2023-05-21T18:44:42.785Z,26.52
2023-05-21T18:44:56.463Z,26.78
2023-05-21T18:46:44.309Z,26.45
2023-05-21T18:47:42.232Z,26.58
2023-05-21T18:48:44.176Z,26.37
2023-05-21T18:50:42.535Z,26.33
2023-05-21T18:55:26.781Z,26.29
2023-05-21T18:57:49.295Z,26.33
2023-05-21T18:58:40.822Z,26.34
2023-05-21T19:00:36.636Z,26.33
2023-05-21T19:02:34.981Z,26.27
2023-05-21T19:04:31.165Z,26.20
2023-05-21T19:06:29.377Z,26.23
2023-05-21T19:08:24.771Z,26.17
2023-05-21T19:10:25.045Z,26.13
2023-05-21T19:12:37.312Z,26.03
2023-05-21T19:14:39.105Z,26.06
2023-05-21T19:16:54.271Z,26.04
2023-05-21T19:18:58.433Z,26.00
2023-05-21T19:21:04.109Z,25.92
2023-05-21T19:22:59.729Z,25.85
2023-05-21T19:25:00.838Z,25.79
2023-05-21T19:27:02.707Z,25.82
2023-05-21T19:29:15.197Z,25.87
2023-05-21T19:31:23.330Z,25.83
2023-05-21T19:33:20.623Z,25.78
2023-05-21T19:35:26.903Z,25.75
2023-05-21T19:37:40.688Z,25.77
2023-05-21T19:39:42.414Z,25.79
2023-05-21T19:41:41.025Z,25.77
2023-05-21T19:43:41.855Z,25.75
2023-05-21T19:45:47.209Z,25.72
2023-05-21T19:47:54.414Z,25.67
2023-05-21T19:50:51.977Z,25.55
2023-05-21T19:53:07.198Z,25.48
2023-05-21T19:55:49.309Z,25.49
2023-05-21T19:58:56.670Z,25.44
2023-05-21T20:01:01.223Z,25.41
2023-05-21T20:03:00.426Z,25.41
2023-05-21T20:05:05.907Z,25.39
2023-05-21T20:07:01.585Z,25.32
2023-05-21T20:08:56.777Z,25.32
2023-05-21T20:10:52.401Z,25.27
2023-05-21T20:12:47.773Z,25.22
2023-05-21T20:14:47.603Z,25.23
2023-05-21T20:16:47.246Z,25.15
2023-05-21T20:18:46.909Z,25.12
2023-05-21T20:20:51.724Z,25.03
2023-05-21T20:25:32.220Z,24.89
2023-05-21T20:28:08.265Z,24.87
2023-05-21T20:30:11.659Z,24.91
2023-05-21T20:32:10.324Z,24.76
2023-05-21T20:34:07.614Z,24.66
2023-05-21T20:36:04.213Z,24.57
2023-05-21T20:38:02.367Z,24.53
2023-05-21T20:39:58.824Z,24.51
2023-05-21T20:41:54.254Z,24.54
2023-05-21T20:43:50.031Z,24.51
2023-05-21T20:45:45.280Z,24.49
2023-05-21T20:47:43.816Z,24.49
2023-05-21T20:49:39.971Z,24.52
2023-05-21T20:51:36.472Z,24.49
2023-05-21T20:53:32.241Z,24.45
2023-05-21T20:55:27.883Z,24.41
2023-05-21T20:57:24.227Z,24.37
2023-05-21T20:59:20.052Z,24.35
2023-05-21T21:01:15.554Z,24.36
2023-05-21T21:03:13.864Z,24.37
2023-05-21T21:05:10.623Z,24.32
2023-05-21T21:07:08.190Z,24.23
2023-05-21T21:09:03.833Z,24.20
2023-05-21T21:10:59.301Z,24.19
2023-05-21T21:12:54.410Z,24.20
2023-05-21T21:14:49.787Z,24.19
2023-05-21T21:16:44.859Z,24.21
2023-05-21T21:18:43.101Z,24.15
2023-05-21T21:20:38.532Z,24.07
2023-05-21T21:22:34.431Z,24.06
2023-05-21T21:24:29.586Z,24.06
2023-05-21T21:26:25.028Z,24.07
2023-05-21T21:28:20.106Z,24.07
2023-05-21T21:30:16.180Z,24.08
2023-05-21T21:32:11.309Z,24.04
2023-05-21T21:34:09.415Z,24.00
2023-05-21T21:36:04.674Z,23.95
2023-05-21T21:38:00.290Z,23.95
2023-05-21T21:39:56.205Z,23.96
2023-05-21T21:41:52.013Z,23.86
2023-05-21T21:43:47.415Z,23.78
2023-05-21T21:45:43.229Z,23.75
2023-05-21T21:47:38.682Z,23.66
2023-05-21T21:49:37.133Z,23.57
2023-05-21T21:51:32.494Z,23.57
2023-05-21T21:53:28.397Z,23.53
2023-05-21T21:55:24.344Z,23.53
2023-05-21T21:57:20.248Z,23.52
2023-05-21T21:59:15.678Z,23.50
2023-05-21T22:01:11.591Z,23.50
2023-05-21T22:03:07.340Z,23.42
2023-05-21T22:05:06.346Z,23.43
2023-05-21T22:07:01.864Z,23.47
2023-05-21T22:08:57.728Z,23.49
2023-05-21T22:10:53.173Z,23.44
2023-05-21T22:12:48.968Z,23.38
2023-05-21T22:14:44.298Z,23.36
2023-05-21T22:16:41.677Z,23.32
2023-05-21T22:18:41.209Z,23.24
2023-05-21T22:20:40.270Z,23.19
2023-05-21T22:22:35.829Z,23.16
2023-05-21T22:24:33.215Z,23.10
2023-05-21T22:26:28.879Z,23.10
2023-05-21T22:28:24.770Z,23.02
2023-05-21T22:30:20.367Z,22.96
2023-05-21T22:32:16.723Z,22.94
2023-05-21T22:34:12.266Z,22.88
2023-05-21T22:36:11.497Z,22.82
2023-05-21T22:38:06.871Z,22.84
2023-05-21T22:40:02.582Z,22.81
2023-05-21T22:41:58.063Z,22.76
2023-05-21T22:43:53.801Z,22.72
2023-05-21T22:45:49.314Z,22.69
2023-05-21T22:47:45.352Z,22.69
2023-05-21T22:49:40.846Z,22.70
2023-05-21T22:51:39.328Z,22.75
2023-05-21T22:53:35.689Z,22.72
2023-05-21T22:55:31.332Z,22.70
2023-05-21T22:57:26.509Z,22.69
2023-05-21T22:59:22.012Z,22.72
2023-05-21T23:01:17.221Z,22.69
2023-05-21T23:03:13.436Z,22.61
2023-05-21T23:05:09.123Z,22.52
2023-05-21T23:07:07.648Z,22.48
2023-05-21T23:09:02.731Z,22.49
2023-05-21T23:10:58.234Z,22.46
2023-05-21T23:12:54.209Z,22.35
2023-05-21T23:14:49.936Z,22.30
2023-05-21T23:16:45.523Z,22.30
2023-05-21T23:18:41.097Z,22.28
2023-05-21T23:20:37.022Z,22.29
2023-05-21T23:22:35.623Z,22.30
2023-05-21T23:24:31.336Z,22.28
2023-05-21T23:26:26.762Z,22.23
2023-05-21T23:28:21.858Z,22.21
2023-05-21T23:30:18.222Z,22.21
2023-05-21T23:32:13.460Z,22.21
2023-05-21T23:34:09.686Z,22.24
2023-05-21T23:36:04.792Z,22.25
2023-05-21T23:38:03.400Z,22.24
2023-05-21T23:39:58.548Z,22.19
2023-05-21T23:41:53.924Z,22.15
2023-05-21T23:43:49.003Z,22.13
2023-05-21T23:45:44.642Z,22.09
2023-05-21T23:47:39.796Z,22.07
2023-05-21T23:49:35.311Z,22.04
2023-05-21T23:51:31.127Z,22.05
2023-05-21T23:53:29.104Z,22.05
2023-05-21T23:55:24.310Z,22.03
2023-05-21T23:57:19.706Z,22.05
2023-05-21T23:59:16.992Z,22.03
